Mechanicsvlle, Virginia
Current Conditions -  °F | °C
As of 6:54 AM on Friday 28 Nov 2014 (Local Time) from KRIC Reporting Station
Few Clouds Few Clouds  
Wind Chill: 25°   Ceiling: Unl
Heat Index: 30°   Visibility: 10mi
Dew Point: 24°   Wind: 5mph
Humidity: 79%   Direction: 310°NW
Pressure: 30.29"   Gusts: NA
Location:  37.634°N, 77.2585°W
Report Text: KRIC 281154Z 31004KT 10SM FEW040 M01/M04 A3029 RMK AO2 SLP264 70003 T10111044 10022 21011 52015
Loading
Personal Weather Stations






























Interactive Weather Map New forecast layout! Learn more

10-Day Weather Forecast

Advertisements
Track Severe Weather on mobile